createdAt,value
2018-07-22T00:03:19.273Z,19.20
2018-07-22T00:08:13.915Z,19.20
2018-07-22T00:13:08.470Z,19.20
2018-07-22T00:18:03.045Z,19.20
2018-07-22T00:22:57.812Z,19.30
2018-07-22T00:27:52.641Z,19.30
2018-07-22T00:32:47.190Z,19.30
2018-07-22T00:37:42.274Z,19.20
2018-07-22T00:42:36.981Z,19.20
2018-07-22T00:47:31.586Z,19.30
2018-07-22T00:52:26.131Z,19.20
2018-07-22T00:57:20.697Z,19.20
2018-07-22T01:02:15.300Z,19.10
2018-07-22T01:07:09.929Z,19.10
2018-07-22T01:12:04.526Z,19.20
2018-07-22T01:16:59.092Z,19.10
2018-07-22T01:21:53.667Z,19.00
2018-07-22T01:26:48.261Z,19.00
2018-07-22T01:36:37.041Z,19.10
2018-07-22T01:46:25.825Z,19.10
2018-07-22T01:51:20.420Z,19.10
2018-07-22T01:56:14.965Z,19.10
2018-07-22T02:01:09.505Z,19.10
2018-07-22T02:06:04.101Z,19.10
2018-07-22T02:10:58.628Z,19.10
2018-07-22T02:15:53.170Z,19.10
2018-07-22T02:20:47.772Z,18.90
2018-07-22T02:25:42.296Z,18.90
2018-07-22T02:30:36.829Z,18.80
2018-07-22T02:35:31.373Z,18.70
2018-07-22T02:40:25.933Z,18.70
2018-07-22T02:45:20.460Z,18.70
2018-07-22T02:50:15.028Z,18.70
2018-07-22T02:55:09.560Z,18.70
2018-07-22T03:00:05.088Z,18.60
2018-07-22T03:04:59.622Z,18.70
2018-07-22T03:09:54.198Z,18.70
2018-07-22T03:14:48.725Z,18.70
2018-07-22T03:19:43.285Z,18.60
2018-07-22T03:24:37.850Z,18.60
2018-07-22T03:29:32.359Z,18.50
2018-07-22T03:34:26.897Z,18.50
2018-07-22T03:39:21.427Z,18.50
2018-07-22T03:44:15.916Z,18.40
2018-07-22T03:49:10.450Z,18.30
2018-07-22T03:54:05.061Z,18.30
2018-07-22T03:58:59.589Z,18.30
2018-07-22T04:03:54.141Z,18.20
2018-07-22T04:08:48.659Z,18.10
2018-07-22T04:13:43.193Z,18.10
2018-07-22T04:18:43.818Z,18.20
2018-07-22T04:23:38.362Z,18.20
2018-07-22T04:28:32.960Z,18.20
2018-07-22T04:33:27.538Z,18.20
2018-07-22T04:38:22.142Z,18.30
2018-07-22T04:43:16.795Z,18.30
2018-07-22T04:48:11.406Z,18.40
2018-07-22T04:53:06.009Z,18.50
2018-07-22T04:58:00.607Z,18.50
2018-07-22T05:02:55.105Z,18.60
2018-07-22T05:07:49.594Z,18.70
2018-07-22T05:12:44.222Z,18.90
2018-07-22T05:17:38.738Z,19.00
2018-07-22T05:22:33.315Z,19.20
2018-07-22T05:27:27.881Z,19.40
2018-07-22T05:32:22.388Z,19.60
2018-07-22T05:37:16.884Z,19.70
2018-07-22T05:42:11.411Z,19.90
2018-07-22T05:47:06.194Z,19.90
2018-07-22T05:52:00.725Z,20.00
2018-07-22T05:56:55.291Z,20.20
2018-07-22T06:01:49.801Z,20.10
2018-07-22T06:06:44.317Z,20.10
2018-07-22T06:11:39.076Z,20.20
2018-07-22T06:16:33.870Z,20.40
2018-07-22T06:21:28.591Z,20.60
2018-07-22T06:26:23.334Z,20.60
2018-07-22T06:31:17.904Z,20.60
2018-07-22T06:36:12.418Z,20.70
2018-07-22T06:41:07.017Z,20.80
2018-07-22T06:46:01.545Z,20.70
2018-07-22T06:50:56.112Z,20.80
2018-07-22T06:55:51.525Z,20.80
2018-07-22T07:00:46.174Z,20.80
2018-07-22T07:05:40.948Z,20.80
2018-07-22T07:15:29.828Z,20.60
2018-07-22T07:20:24.340Z,20.50
2018-07-22T07:25:18.872Z,20.20
2018-07-22T07:30:13.465Z,20.20
2018-07-22T07:35:08.070Z,20.20
2018-07-22T07:40:02.623Z,20.20
2018-07-22T07:44:57.174Z,20.30
2018-07-22T07:49:52.007Z,20.40
2018-07-22T07:54:46.702Z,20.50
2018-07-22T07:59:41.265Z,20.50
2018-07-22T08:09:30.338Z,20.40
2018-07-22T08:14:24.978Z,20.40
2018-07-22T08:19:19.591Z,20.50
2018-07-22T08:24:14.193Z,20.40
2018-07-22T08:34:17.573Z,20.50
2018-07-22T08:39:12.174Z,20.70
2018-07-22T08:44:07.201Z,20.70
2018-07-22T08:49:01.891Z,20.70
2018-07-22T08:53:56.451Z,20.70
2018-07-22T08:58:51.059Z,20.90
2018-07-22T09:03:45.623Z,20.90
2018-07-22T09:08:40.206Z,20.90
2018-07-22T09:13:34.825Z,20.90
2018-07-22T09:18:29.378Z,21.00
2018-07-22T09:23:23.943Z,21.20
2018-07-22T09:28:18.493Z,21.30
2018-07-22T09:38:08.141Z,21.50
2018-07-22T09:47:56.959Z,21.90
2018-07-22T09:52:51.507Z,21.90
2018-07-22T09:57:46.130Z,21.80
2018-07-22T10:07:34.989Z,22.10
2018-07-22T10:12:29.677Z,22.30
2018-07-22T10:17:24.474Z,22.30
2018-07-22T10:22:19.065Z,22.40
2018-07-22T10:27:13.670Z,22.60
2018-07-22T10:32:08.331Z,22.80
2018-07-22T10:37:02.895Z,23.10
2018-07-22T10:41:57.482Z,23.30
2018-07-22T10:46:52.104Z,23.20
2018-07-22T10:51:46.687Z,23.10
2018-07-22T10:56:41.233Z,23.30
2018-07-22T11:06:30.222Z,23.80
2018-07-22T11:11:24.765Z,23.80
2018-07-22T11:16:19.388Z,24.10
2018-07-22T11:21:14.021Z,24.40
2018-07-22T11:26:08.517Z,24.80
2018-07-22T11:31:03.068Z,24.90
2018-07-22T11:35:57.658Z,24.90
2018-07-22T11:40:52.208Z,24.70
2018-07-22T11:45:46.711Z,25.00
2018-07-22T11:50:41.286Z,25.10
2018-07-22T11:55:35.946Z,25.20
2018-07-22T12:00:30.485Z,25.20
2018-07-22T12:05:25.176Z,25.20
2018-07-22T12:10:19.765Z,25.20
2018-07-22T12:15:14.296Z,25.30
2018-07-22T12:20:08.901Z,25.30
2018-07-22T12:25:03.539Z,25.60
2018-07-22T12:34:52.445Z,26.00
2018-07-22T12:39:47.009Z,25.90
2018-07-22T12:44:41.576Z,25.90
2018-07-22T12:49:36.136Z,26.40
2018-07-22T12:54:30.775Z,26.40
2018-07-22T12:59:25.333Z,26.00
2018-07-22T13:04:19.960Z,26.40
2018-07-22T13:09:14.554Z,26.40
2018-07-22T13:14:09.301Z,26.30
2018-07-22T13:19:03.877Z,26.40
2018-07-22T13:23:58.444Z,26.50
2018-07-22T13:28:53.090Z,26.60
2018-07-22T13:33:47.755Z,26.90
2018-07-22T13:38:42.566Z,26.60
2018-07-22T13:43:37.142Z,26.50
2018-07-22T13:48:31.684Z,26.60
2018-07-22T13:53:26.287Z,26.60
2018-07-22T13:58:20.836Z,27.10
2018-07-22T14:03:15.390Z,27.40
2018-07-22T14:08:09.973Z,27.50
2018-07-22T14:17:58.902Z,27.90
2018-07-22T14:22:53.477Z,27.60
2018-07-22T14:32:42.581Z,27.80
2018-07-22T14:37:37.213Z,27.80
2018-07-22T14:42:31.790Z,27.90
2018-07-22T14:47:26.517Z,27.70
2018-07-22T14:52:21.149Z,28.00
2018-07-22T14:57:15.945Z,27.90
2018-07-22T15:02:10.695Z,27.70
2018-07-22T15:07:05.355Z,27.90
2018-07-22T15:12:00.238Z,27.50
2018-07-22T15:16:54.898Z,27.60
2018-07-22T15:21:49.518Z,27.70
2018-07-22T15:26:44.216Z,27.80
2018-07-22T15:31:38.786Z,27.30
2018-07-22T15:41:27.757Z,27.70
2018-07-22T15:46:22.315Z,27.20
2018-07-22T15:51:17.085Z,27.40
2018-07-22T15:56:11.654Z,27.40
2018-07-22T16:01:06.521Z,27.30
2018-07-22T16:06:01.195Z,27.50
2018-07-22T16:10:55.932Z,27.40
2018-07-22T16:15:50.582Z,27.30
2018-07-22T16:20:45.445Z,27.10
2018-07-22T16:25:40.020Z,26.90
2018-07-22T16:30:34.655Z,26.50
2018-07-22T16:35:29.332Z,26.10
2018-07-22T16:40:23.982Z,24.00
2018-07-22T16:45:18.556Z,23.00
2018-07-22T16:50:13.135Z,22.00
2018-07-22T16:55:07.932Z,21.80
2018-07-22T17:00:02.506Z,21.90
2018-07-22T17:04:57.239Z,21.70
2018-07-22T17:14:46.153Z,21.30
2018-07-22T17:24:35.082Z,21.70
2018-07-22T17:29:29.625Z,22.00
2018-07-22T17:34:24.185Z,22.10
2018-07-22T17:39:18.975Z,21.90
2018-07-22T17:49:08.209Z,21.80
2018-07-22T17:54:02.923Z,21.40
2018-07-22T17:58:57.451Z,21.20
2018-07-22T18:03:51.996Z,21.40
2018-07-22T18:08:46.532Z,21.20
2018-07-22T18:13:41.065Z,20.90
2018-07-22T18:18:35.644Z,20.80
2018-07-22T18:23:30.296Z,20.70
2018-07-22T18:28:24.929Z,20.60
2018-07-22T18:33:19.619Z,20.70
2018-07-22T18:38:14.544Z,20.50
2018-07-22T18:43:09.113Z,20.50
2018-07-22T18:48:03.729Z,20.40
2018-07-22T18:52:58.331Z,20.50
2018-07-22T18:57:52.869Z,20.20
2018-07-22T19:02:47.470Z,20.10
2018-07-22T19:07:42.075Z,20.30
2018-07-22T19:12:36.729Z,20.30
2018-07-22T19:17:31.254Z,20.10
2018-07-22T19:22:25.815Z,20.00
2018-07-22T19:27:20.421Z,20.00
2018-07-22T19:32:15.017Z,19.90
2018-07-22T19:37:09.825Z,20.00
2018-07-22T19:42:04.768Z,19.90
2018-07-22T19:46:59.377Z,19.60
2018-07-22T19:51:54.000Z,19.30
2018-07-22T19:56:48.473Z,19.20
2018-07-22T20:01:43.649Z,19.10
2018-07-22T20:06:38.576Z,19.00
2018-07-22T20:11:33.132Z,18.90
2018-07-22T20:16:27.672Z,18.90
2018-07-22T20:21:22.206Z,19.00
2018-07-22T20:26:16.729Z,19.00
2018-07-22T20:31:11.221Z,19.00
2018-07-22T20:36:05.947Z,19.00
2018-07-22T20:41:00.490Z,19.00
2018-07-22T20:45:55.050Z,19.00
2018-07-22T20:50:49.609Z,18.90
2018-07-22T20:55:44.113Z,18.90
2018-07-22T21:00:38.609Z,19.00
2018-07-22T21:05:33.285Z,18.90
2018-07-22T21:10:27.772Z,19.00
2018-07-22T21:15:22.261Z,18.90
2018-07-22T21:20:17.803Z,18.80
2018-07-22T21:25:12.625Z,18.80
2018-07-22T21:30:08.540Z,18.70
2018-07-22T21:35:03.008Z,18.60
2018-07-22T21:39:57.558Z,18.40
2018-07-22T21:44:52.101Z,18.40
2018-07-22T21:49:46.633Z,18.40
2018-07-22T21:54:41.201Z,18.30
2018-07-22T21:59:35.717Z,18.40
2018-07-22T22:04:30.465Z,18.40
2018-07-22T22:09:25.053Z,18.40
2018-07-22T22:14:19.697Z,18.50
2018-07-22T22:19:14.404Z,18.50
2018-07-22T22:24:09.066Z,18.50
2018-07-22T22:29:03.540Z,18.60
2018-07-22T22:33:58.132Z,18.50
2018-07-22T22:38:52.767Z,18.60
2018-07-22T22:43:47.317Z,18.50
2018-07-22T22:48:41.865Z,18.40
2018-07-22T22:53:36.485Z,18.40
2018-07-22T22:58:47.945Z,18.50
2018-07-22T23:03:42.462Z,18.40
2018-07-22T23:13:31.275Z,18.50
2018-07-22T23:18:25.765Z,18.50
2018-07-22T23:23:20.485Z,18.50
2018-07-22T23:28:15.067Z,18.50
2018-07-22T23:33:09.549Z,18.50
2018-07-22T23:38:04.106Z,18.40
2018-07-22T23:42:58.647Z,18.40
2018-07-22T23:47:53.146Z,18.40
2018-07-22T23:52:47.706Z,18.30
2018-07-22T23:57:42.248Z,18.20
